Time;durP1;ratioP1;P1;durP2;ratioP2;P2;SDS_P1;SDS_P2;PMS_P1;PMS_P2;Temp;Humidity;BMP_temperature;BMP_pressure;BME280_temperature;BME280_humidity;BME280_pressure;Samples;Min_cycle;Max_cycle;Signal;HPM_P1;HPM_P2
2022/10/21 00:01:11;;;;;;;;;;;9.80;99.90;;;;;;5067901;28;20002;-77
2022/10/21 00:03:37;;;;;;;;;;;9.80;99.90;;;;;;5073269;28;19991;-76
2022/10/21 00:06:02;;;;;;;;;;;9.80;99.90;;;;;;5065252;28;19916;-76
2022/10/21 00:08:28;;;;;;;;;;;9.80;99.90;;;;;;5071278;28;19912;-76
2022/10/21 00:10:54;;;;;;;;;;;9.70;99.90;;;;;;5060968;28;20003;-78
2022/10/21 00:13:20;;;;;;;;;;;9.80;99.90;;;;;;5054026;28;19948;-77
2022/10/21 00:15:55;;;;;;;;;;;9.80;99.90;;;;;;5062914;28;20379;-76
2022/10/21 00:18:21;;;;;;;;;;;9.80;99.90;;;;;;5066050;28;19966;-77
2022/10/21 00:20:46;;;;;;;;;;;9.80;99.90;;;;;;5068821;28;19940;-77
2022/10/21 00:23:12;;;;;;;;;;;9.80;99.90;;;;;;5056294;28;20006;-77
2022/10/21 00:25:37;;;;;;;;;;;9.90;99.90;;;;;;5064140;28;19942;-77
2022/10/21 00:28:02;;;;;;;;;;;9.90;99.90;;;;;;5056154;28;19916;-77
2022/10/21 00:30:28;;;;;;;;;;;10.00;99.90;;;;;;5057646;28;20004;-77
2022/10/21 00:32:53;;;;;;;;;;;10.10;99.90;;;;;;5067843;28;19904;-77
2022/10/21 00:35:19;;;;;;;;;;;10.10;99.90;;;;;;5067951;28;20348;-76
2022/10/21 00:37:44;;;;;;;;;;;10.10;99.90;;;;;;5056317;28;19912;-79
2022/10/21 00:40:09;;;;;;;;;;;10.20;99.90;;;;;;5061804;28;19916;-77
2022/10/21 00:42:37;;;;;;;;;;;10.20;99.90;;;;;;5062245;28;19935;-78
2022/10/21 00:45:05;;;;;;;;;;;10.30;99.90;;;;;;5060813;28;20329;-77
2022/10/21 00:47:38;;;;;;;;;;;10.30;99.90;;;;;;5061606;28;19905;-77
2022/10/21 00:50:04;;;;;;;;;;;10.30;99.90;;;;;;5068933;28;19935;-77
2022/10/21 00:52:32;;;;;;;;;;;10.40;99.90;;;;;;5056639;28;19908;-77
2022/10/21 00:54:59;;;;;;;;;;;10.30;99.90;;;;;;5058234;28;19909;-77
2022/10/21 00:57:26;;;;;;;;;;;10.30;99.90;;;;;;5063306;28;19909;-77
2022/10/21 00:59:54;;;;;;;;;;;10.30;99.90;;;;;;5063757;28;19923;-77
2022/10/21 01:02:20;;;;;;;;;;;10.20;99.90;;;;;;5042706;28;20287;-77
2022/10/21 01:04:47;;;;;;;;;;;10.30;99.90;;;;;;5069365;28;19912;-76
2022/10/21 01:07:12;;;;;;;;;;;10.30;99.90;;;;;;5070651;28;19920;-77
2022/10/21 01:09:37;;;;;;;;;;;10.20;99.90;;;;;;5067827;28;20264;-77
2022/10/21 01:12:04;;;;;;;;;;;10.30;99.90;;;;;;5060819;28;19916;-77
2022/10/21 01:14:45;;;;;;;;;;;10.20;99.90;;;;;;5061341;28;19955;-77
2022/10/21 01:17:15;;;;;;;;;;;10.20;99.90;;;;;;5062447;28;19954;-77
2022/10/21 01:20:10;;;;;;;;;;;10.20;99.90;;;;;;5065596;28;20395;-77
2022/10/21 01:22:54;;;;;;;;;;;10.20;99.90;;;;;;5058834;28;20374;-77
2022/10/21 01:25:31;;;;;;;;;;;10.20;99.90;;;;;;5066435;28;19986;-77
2022/10/21 01:28:14;;;;;;;;;;;10.30;99.90;;;;;;5038239;28;20272;-77
2022/10/21 01:30:52;;;;;;;;;;;10.30;99.90;;;;;;5068773;28;20253;-78
2022/10/21 01:33:32;;;;;;;;;;;10.40;99.90;;;;;;5059704;28;20621;-78
2022/10/21 01:36:04;;;;;;;;;;;10.50;99.90;;;;;;5063921;28;19912;-77
2022/10/21 01:38:33;;;;;;;;;;;10.50;99.90;;;;;;5047063;28;19909;-77
2022/10/21 01:41:07;;;;;;;;;;;10.50;99.90;;;;;;5068070;28;20408;-76
2022/10/21 01:43:37;;;;;;;;;;;10.60;99.90;;;;;;5056783;28;20375;-77
2022/10/21 01:46:13;;;;;;;;;;;10.60;99.90;;;;;;5067383;28;19919;-77
2022/10/21 01:48:43;;;;;;;;;;;10.60;99.90;;;;;;5062235;28;19916;-77
2022/10/21 01:51:10;;;;;;;;;;;10.60;99.90;;;;;;5068755;28;20284;-77
2022/10/21 01:53:44;;;;;;;;;;;10.60;99.90;;;;;;5064928;28;19917;-77
2022/10/21 01:56:11;;;;;;;;;;;10.70;99.90;;;;;;5054930;28;19911;-77
2022/10/21 01:58:38;;;;;;;;;;;10.70;99.90;;;;;;5063262;28;19915;-77
2022/10/21 02:01:05;;;;;;;;;;;10.70;99.90;;;;;;5057580;28;19913;-77
2022/10/21 02:03:33;;;;;;;;;;;10.70;99.90;;;;;;5052569;28;20002;-76
2022/10/21 02:05:59;;;;;;;;;;;10.70;99.90;;;;;;5062157;28;19917;-76
2022/10/21 02:08:24;;;;;;;;;;;10.70;99.90;;;;;;5064813;28;20280;-77
2022/10/21 02:10:55;;;;;;;;;;;10.80;99.90;;;;;;5065662;28;20258;-77
2022/10/21 02:13:24;;;;;;;;;;;10.80;99.90;;;;;;5056777;28;20318;-76
2022/10/21 02:15:51;;;;;;;;;;;10.70;99.90;;;;;;5066242;28;19911;-77
2022/10/21 02:18:21;;;;;;;;;;;10.80;99.90;;;;;;5064909;28;19920;-76
2022/10/21 02:20:48;;;;;;;;;;;10.90;99.90;;;;;;5065390;28;19912;-77
2022/10/21 02:23:15;;;;;;;;;;;10.90;99.90;;;;;;5062778;28;19912;-77
2022/10/21 02:25:42;;;;;;;;;;;11.00;99.90;;;;;;5055093;28;19920;-76
2022/10/21 02:28:08;;;;;;;;;;;11.00;99.90;;;;;;5057681;28;19909;-78
2022/10/21 02:30:59;;;;;;;;;;;11.00;99.90;;;;;;5065307;28;20011;-79
2022/10/21 02:33:32;;;;;;;;;;;11.10;99.90;;;;;;5024687;28;19908;-77
2022/10/21 02:36:04;;;;;;;;;;;11.10;99.90;;;;;;5057582;28;20351;-77
2022/10/21 02:38:35;;;;;;;;;;;11.10;99.90;;;;;;5055813;28;19908;-77
2022/10/21 02:41:06;;;;;;;;;;;11.20;99.90;;;;;;5062701;28;19909;-77
2022/10/21 02:43:33;;;;;;;;;;;11.20;99.90;;;;;;5062543;28;19924;-78
2022/10/21 02:45:59;;;;;;;;;;;11.30;99.90;;;;;;5051899;28;19921;-77
2022/10/21 02:48:25;;;;;;;;;;;11.30;99.90;;;;;;5050457;28;19982;-77
2022/10/21 02:50:50;;;;;;;;;;;11.30;99.90;;;;;;5066331;28;20387;-76
2022/10/21 02:53:16;;;;;;;;;;;11.30;99.90;;;;;;5059745;28;19928;-76
2022/10/21 02:55:41;;;;;;;;;;;11.30;99.90;;;;;;5065241;28;19913;-78
2022/10/21 02:58:07;;;;;;;;;;;11.30;99.90;;;;;;5055303;28;19908;-77
2022/10/21 03:00:32;;;;;;;;;;;11.30;99.90;;;;;;5068882;28;19962;-77
2022/10/21 03:02:58;;;;;;;;;;;11.20;99.90;;;;;;5075286;28;19908;-78
2022/10/21 03:05:23;;;;;;;;;;;11.10;99.90;;;;;;5070934;28;19915;-77
2022/10/21 03:07:49;;;;;;;;;;;11.10;99.90;;;;;;5057381;28;19908;-76
2022/10/21 03:10:15;;;;;;;;;;;11.10;99.90;;;;;;5060300;28;20314;-76
2022/10/21 03:12:40;;;;;;;;;;;11.10;99.90;;;;;;5054530;28;19904;-76
2022/10/21 03:15:06;;;;;;;;;;;11.10;99.90;;;;;;5059447;28;19943;-76
2022/10/21 03:17:31;;;;;;;;;;;11.00;99.90;;;;;;5061459;28;19968;-76
2022/10/21 03:19:56;;;;;;;;;;;11.00;99.90;;;;;;5085321;28;19904;-77
2022/10/21 03:22:22;;;;;;;;;;;11.00;99.90;;;;;;5058359;28;19908;-76
2022/10/21 03:24:47;;;;;;;;;;;11.00;99.90;;;;;;5060314;28;20343;-76
2022/10/21 03:27:13;;;;;;;;;;;11.00;99.90;;;;;;5076356;28;19912;-77
2022/10/21 03:29:38;;;;;;;;;;;11.00;99.90;;;;;;5071461;28;19911;-77
2022/10/21 03:32:04;;;;;;;;;;;10.90;99.90;;;;;;5053989;28;19916;-76
2022/10/21 03:34:29;;;;;;;;;;;10.90;99.90;;;;;;5065291;28;20320;-77
2022/10/21 03:36:54;;;;;;;;;;;10.90;99.90;;;;;;5067811;28;19909;-76
2022/10/21 03:39:20;;;;;;;;;;;10.80;99.90;;;;;;5059949;28;19909;-76
2022/10/21 03:41:45;;;;;;;;;;;10.80;99.90;;;;;;5065010;28;19908;-77
2022/10/21 03:44:10;;;;;;;;;;;10.80;99.90;;;;;;5071903;28;20319;-77
2022/10/21 03:46:36;;;;;;;;;;;10.70;99.90;;;;;;5074795;28;20371;-76
2022/10/21 03:49:01;;;;;;;;;;;10.80;99.90;;;;;;5059144;28;19913;-76
2022/10/21 03:51:27;;;;;;;;;;;10.70;99.90;;;;;;5057441;28;19912;-77
2022/10/21 03:53:52;;;;;;;;;;;10.60;99.90;;;;;;5064388;28;19912;-76
2022/10/21 03:56:17;;;;;;;;;;;10.60;99.90;;;;;;5057803;28;20395;-80
2022/10/21 03:58:43;;;;;;;;;;;10.70;99.90;;;;;;5057710;28;19992;-77
2022/10/21 04:01:12;;;;;;;;;;;10.70;99.90;;;;;;5057675;28;19959;-78
2022/10/21 04:03:37;;;;;;;;;;;10.70;99.90;;;;;;5067317;28;19912;-77
2022/10/21 04:06:03;;;;;;;;;;;10.60;99.90;;;;;;5068911;28;19922;-78
2022/10/21 04:08:28;;;;;;;;;;;10.70;99.90;;;;;;5070536;28;19912;-77
2022/10/21 04:10:55;;;;;;;;;;;10.60;99.90;;;;;;5067332;28;19909;-78
2022/10/21 04:13:21;;;;;;;;;;;10.60;99.90;;;;;;5066344;28;19908;-77
2022/10/21 04:15:46;;;;;;;;;;;10.70;99.90;;;;;;5063802;28;20399;-78
2022/10/21 04:18:12;;;;;;;;;;;10.60;99.90;;;;;;5060929;28;19917;-77
2022/10/21 04:20:37;;;;;;;;;;;10.60;99.90;;;;;;5066363;28;19909;-77
2022/10/21 04:23:02;;;;;;;;;;;10.60;99.90;;;;;;5062636;28;19916;-77
2022/10/21 04:25:28;;;;;;;;;;;10.60;99.90;;;;;;5061117;28;19997;-77
2022/10/21 04:27:53;;;;;;;;;;;10.60;99.90;;;;;;5053775;28;19909;-77
2022/10/21 04:30:19;;;;;;;;;;;10.60;99.90;;;;;;5071368;28;19947;-73
2022/10/21 04:32:44;;;;;;;;;;;10.60;99.90;;;;;;5057712;28;19917;-71
2022/10/21 04:35:10;;;;;;;;;;;10.60;99.90;;;;;;5072125;28;19961;-71
2022/10/21 04:37:38;;;;;;;;;;;10.60;99.90;;;;;;5071302;28;19908;-71
2022/10/21 04:40:05;;;;;;;;;;;10.60;99.90;;;;;;5060735;28;19916;-71
2022/10/21 04:42:30;;;;;;;;;;;10.60;99.90;;;;;;5059315;28;20007;-70
2022/10/21 04:44:56;;;;;;;;;;;10.60;99.90;;;;;;5066778;28;19999;-71
2022/10/21 04:47:21;;;;;;;;;;;10.60;99.90;;;;;;5062911;28;20359;-70
2022/10/21 04:49:46;;;;;;;;;;;10.60;99.90;;;;;;5047424;28;19915;-71
2022/10/21 04:52:12;;;;;;;;;;;10.60;99.90;;;;;;5063410;28;19912;-71
2022/10/21 04:54:37;;;;;;;;;;;10.60;99.90;;;;;;5067175;28;19908;-71
2022/10/21 04:57:03;;;;;;;;;;;10.50;99.90;;;;;;5047501;28;19916;-70
2022/10/21 04:59:28;;;;;;;;;;;10.40;99.90;;;;;;5070515;28;19930;-71
2022/10/21 05:01:54;;;;;;;;;;;10.40;99.90;;;;;;5070261;28;19979;-71
2022/10/21 05:04:19;;;;;;;;;;;10.30;99.90;;;;;;5061642;28;19908;-72
2022/10/21 05:06:44;;;;;;;;;;;10.40;99.90;;;;;;5067710;28;19917;-71
2022/10/21 05:09:10;;;;;;;;;;;10.30;99.90;;;;;;5064706;28;19904;-71
2022/10/21 05:11:35;;;;;;;;;;;10.30;99.90;;;;;;5063527;28;19951;-70
2022/10/21 05:14:01;;;;;;;;;;;10.30;99.90;;;;;;5059015;28;19966;-72
2022/10/21 05:16:26;;;;;;;;;;;10.40;99.90;;;;;;5060895;28;19948;-71
2022/10/21 05:18:51;;;;;;;;;;;10.40;99.90;;;;;;5057875;28;19919;-71
2022/10/21 05:21:17;;;;;;;;;;;10.40;99.90;;;;;;5059517;28;19909;-71
2022/10/21 05:23:42;;;;;;;;;;;10.40;99.90;;;;;;5056682;28;19917;-71
2022/10/21 05:26:08;;;;;;;;;;;10.40;99.90;;;;;;5037882;28;20003;-71
2022/10/21 05:28:33;;;;;;;;;;;10.40;99.90;;;;;;5045524;28;19913;-71
2022/10/21 05:30:59;;;;;;;;;;;10.40;99.90;;;;;;5058486;28;19928;-76
2022/10/21 05:33:24;;;;;;;;;;;10.30;99.90;;;;;;5056862;28;19975;-71
2022/10/21 05:36:03;;;;;;;;;;;10.30;99.90;;;;;;5074288;28;20324;-71
2022/10/21 05:38:29;;;;;;;;;;;10.30;99.90;;;;;;5062168;28;19908;-71
2022/10/21 05:40:55;;;;;;;;;;;10.30;99.90;;;;;;5066569;28;20288;-73
2022/10/21 05:43:20;;;;;;;;;;;10.40;99.90;;;;;;5064913;28;19909;-71
2022/10/21 05:45:46;;;;;;;;;;;10.40;99.90;;;;;;5066840;28;19923;-70
2022/10/21 05:48:11;;;;;;;;;;;10.50;99.90;;;;;;5067323;28;19916;-71
2022/10/21 05:50:37;;;;;;;;;;;10.50;99.90;;;;;;5056208;28;19909;-70
2022/10/21 05:53:02;;;;;;;;;;;10.50;99.90;;;;;;5066638;28;20340;-71
2022/10/21 05:55:28;;;;;;;;;;;10.60;99.90;;;;;;5047079;28;19990;-71
2022/10/21 05:57:53;;;;;;;;;;;10.60;99.90;;;;;;5068208;28;19971;-71
2022/10/21 06:00:19;;;;;;;;;;;10.60;99.90;;;;;;5063773;28;20260;-71
2022/10/21 06:02:44;;;;;;;;;;;10.60;99.90;;;;;;5058616;28;19909;-71
2022/10/21 06:05:09;;;;;;;;;;;10.70;99.90;;;;;;5062535;28;19909;-71
2022/10/21 06:07:35;;;;;;;;;;;10.70;99.90;;;;;;5065028;28;19920;-73
2022/10/21 06:10:01;;;;;;;;;;;10.80;99.90;;;;;;5069859;28;19908;-70
2022/10/21 06:12:26;;;;;;;;;;;10.70;99.90;;;;;;5057522;28;20353;-73
2022/10/21 06:14:52;;;;;;;;;;;10.80;99.90;;;;;;5069434;28;19908;-71
2022/10/21 06:17:17;;;;;;;;;;;10.80;99.90;;;;;;5054929;28;19960;-75
2022/10/21 06:19:43;;;;;;;;;;;10.80;99.90;;;;;;5066777;28;19908;-71
2022/10/21 06:22:08;;;;;;;;;;;10.80;99.90;;;;;;5067155;28;19908;-71
2022/10/21 06:24:34;;;;;;;;;;;10.80;99.90;;;;;;5052952;28;19925;-70
2022/10/21 06:26:59;;;;;;;;;;;10.80;99.90;;;;;;5054551;28;19916;-71
2022/10/21 06:29:26;;;;;;;;;;;10.90;99.90;;;;;;5066374;28;19973;-73
2022/10/21 06:31:51;;;;;;;;;;;10.90;99.90;;;;;;5055644;28;19924;-71
2022/10/21 06:34:17;;;;;;;;;;;11.00;99.90;;;;;;5054282;28;20308;-71
2022/10/21 06:36:42;;;;;;;;;;;10.90;99.90;;;;;;5057901;28;19912;-71
2022/10/21 06:39:08;;;;;;;;;;;10.90;99.90;;;;;;5068863;28;20002;-71
2022/10/21 06:41:33;;;;;;;;;;;10.90;99.90;;;;;;5057639;28;20379;-71
2022/10/21 06:43:59;;;;;;;;;;;11.00;99.90;;;;;;5067597;28;19912;-71
2022/10/21 06:46:24;;;;;;;;;;;10.90;99.90;;;;;;5058631;28;20019;-71
2022/10/21 06:48:49;;;;;;;;;;;11.00;99.90;;;;;;5063359;28;20395;-71
2022/10/21 06:51:16;;;;;;;;;;;11.00;99.90;;;;;;5063848;28;20023;-70
2022/10/21 06:53:42;;;;;;;;;;;10.90;99.90;;;;;;5056807;28;19979;-70
2022/10/21 06:56:17;;;;;;;;;;;11.00;99.90;;;;;;5060824;28;19936;-72
2022/10/21 06:58:46;;;;;;;;;;;11.00;99.90;;;;;;5067234;28;20353;-72
2022/10/21 07:01:13;;;;;;;;;;;11.00;99.90;;;;;;5066789;28;19916;-72
2022/10/21 07:03:39;;;;;;;;;;;11.00;99.90;;;;;;5060958;28;19908;-72
2022/10/21 07:06:04;;;;;;;;;;;11.00;99.90;;;;;;5060910;28;20410;-72
2022/10/21 07:08:30;;;;;;;;;;;11.10;99.90;;;;;;5051476;28;19923;-70
2022/10/21 07:10:56;;;;;;;;;;;11.10;99.90;;;;;;5061994;28;19931;-71
2022/10/21 07:13:22;;;;;;;;;;;11.10;99.90;;;;;;5063167;28;20329;-71
2022/10/21 07:15:55;;;;;;;;;;;11.20;99.90;;;;;;5057078;28;19904;-73
2022/10/21 07:18:21;;;;;;;;;;;11.20;99.90;;;;;;5061927;28;19916;-70
2022/10/21 07:20:46;;;;;;;;;;;11.30;99.90;;;;;;5058585;28;19908;-71
2022/10/21 07:23:12;;;;;;;;;;;11.30;99.90;;;;;;5068509;28;20340;-71
2022/10/21 07:25:37;;;;;;;;;;;11.40;99.90;;;;;;5070124;28;19917;-71
2022/10/21 07:28:02;;;;;;;;;;;11.30;99.90;;;;;;5057715;28;19992;-71
2022/10/21 07:30:28;;;;;;;;;;;11.40;99.90;;;;;;5053642;28;19962;-71
2022/10/21 07:32:53;;;;;;;;;;;11.40;99.90;;;;;;5037545;28;19958;-71
2022/10/21 07:35:19;;;;;;;;;;;11.40;99.90;;;;;;5061720;28;20386;-71
2022/10/21 07:37:44;;;;;;;;;;;11.40;99.90;;;;;;5082770;28;19957;-74
2022/10/21 07:40:11;;;;;;;;;;;11.50;99.90;;;;;;5065013;28;19908;-70
2022/10/21 07:42:36;;;;;;;;;;;11.50;99.90;;;;;;5065492;28;19912;-71
2022/10/21 07:45:02;;;;;;;;;;;11.50;99.90;;;;;;5068789;28;20406;-72
2022/10/21 07:47:27;;;;;;;;;;;11.60;99.90;;;;;;5062985;28;19923;-71
2022/10/21 07:49:53;;;;;;;;;;;11.60;99.90;;;;;;5066206;28;19908;-71
2022/10/21 07:52:18;;;;;;;;;;;11.70;99.90;;;;;;5062271;28;20256;-72
2022/10/21 07:54:43;;;;;;;;;;;11.70;99.90;;;;;;5074421;28;19908;-73
2022/10/21 07:57:09;;;;;;;;;;;11.80;99.90;;;;;;5061308;28;19916;-72
2022/10/21 07:59:35;;;;;;;;;;;11.80;99.90;;;;;;5063875;28;19908;-71
2022/10/21 08:02:00;;;;;;;;;;;11.90;99.90;;;;;;5060332;28;19913;-70
2022/10/21 08:04:28;;;;;;;;;;;12.00;99.90;;;;;;5065299;28;19915;-71
2022/10/21 08:06:54;;;;;;;;;;;12.00;99.90;;;;;;5064951;28;19952;-72
2022/10/21 08:09:20;;;;;;;;;;;12.10;99.90;;;;;;5069235;28;20425;-71
2022/10/21 08:11:45;;;;;;;;;;;12.10;99.90;;;;;;5064127;28;20306;-72
2022/10/21 08:14:10;;;;;;;;;;;12.20;99.90;;;;;;5074455;28;19991;-71
2022/10/21 08:16:36;;;;;;;;;;;12.30;99.90;;;;;;5062319;28;19909;-71
2022/10/21 08:19:02;;;;;;;;;;;12.30;99.90;;;;;;5056229;28;20370;-73
2022/10/21 08:21:28;;;;;;;;;;;12.30;99.90;;;;;;5063349;28;19913;-71
2022/10/21 08:23:54;;;;;;;;;;;12.20;99.90;;;;;;5050219;28;20351;-71
2022/10/21 08:26:19;;;;;;;;;;;12.30;99.90;;;;;;5063436;28;19962;-70
2022/10/21 08:28:45;;;;;;;;;;;12.40;99.90;;;;;;5070261;28;19908;-71
2022/10/21 08:31:11;;;;;;;;;;;12.40;99.90;;;;;;5056328;28;19916;-74
2022/10/21 08:33:37;;;;;;;;;;;12.40;99.90;;;;;;5064962;28;19904;-70
2022/10/21 08:36:04;;;;;;;;;;;12.50;99.90;;;;;;5070958;28;20328;-71
2022/10/21 08:38:29;;;;;;;;;;;12.60;99.90;;;;;;5067256;28;19916;-72
2022/10/21 08:40:54;;;;;;;;;;;12.60;99.90;;;;;;5062576;28;19916;-76
2022/10/21 08:43:22;;;;;;;;;;;12.60;99.90;;;;;;5062481;28;20356;-73
2022/10/21 08:45:54;;;;;;;;;;;12.60;99.90;;;;;;5059735;28;19965;-73
2022/10/21 08:48:22;;;;;;;;;;;12.60;99.90;;;;;;5058038;28;19920;-73
2022/10/21 08:50:49;;;;;;;;;;;12.70;99.90;;;;;;5063890;28;19923;-73
2022/10/21 08:53:28;;;;;;;;;;;12.70;99.90;;;;;;5061788;28;19908;-74
2022/10/21 08:56:00;;;;;;;;;;;12.80;99.90;;;;;;5063407;28;20006;-75
2022/10/21 08:58:26;;;;;;;;;;;12.90;99.90;;;;;;5063838;28;19916;-73
2022/10/21 09:00:55;;;;;;;;;;;12.90;99.90;;;;;;5061859;28;20007;-74
2022/10/21 09:03:27;;;;;;;;;;;12.90;99.90;;;;;;5039047;28;19912;-73
2022/10/21 09:06:12;;;;;;;;;;;12.90;99.90;;;;;;5063930;28;20413;-74
2022/10/21 09:08:56;;;;;;;;;;;13.00;99.90;;;;;;5059596;28;20360;-73
2022/10/21 09:11:37;;;;;;;;;;;13.20;99.90;;;;;;5056215;28;19959;-73
2022/10/21 09:14:30;;;;;;;;;;;13.20;99.60;;;;;;5057777;28;20418;-73
2022/10/21 09:17:01;;;;;;;;;;;13.30;99.50;;;;;;5056690;28;19909;-73
2022/10/21 09:19:34;;;;;;;;;;;13.50;99.50;;;;;;5040536;28;19911;-73
2022/10/21 09:22:05;;;;;;;;;;;13.50;99.10;;;;;;5058687;28;19909;-73
2022/10/21 09:24:38;;;;;;;;;;;13.50;98.70;;;;;;5061608;28;19908;-73
2022/10/21 09:27:04;;;;;;;;;;;13.60;98.70;;;;;;5074079;28;19978;-72
2022/10/21 09:29:35;;;;;;;;;;;13.60;98.70;;;;;;5059599;28;19947;-73
2022/10/21 09:32:09;;;;;;;;;;;13.60;98.30;;;;;;5051547;28;20462;-74
2022/10/21 09:34:41;;;;;;;;;;;13.80;98.40;;;;;;5064197;28;20245;-73
2022/10/21 09:37:11;;;;;;;;;;;14.00;98.30;;;;;;5059379;28;19909;-73
2022/10/21 09:39:40;;;;;;;;;;;14.00;98.00;;;;;;5054652;28;19915;-73
2022/10/21 09:42:08;;;;;;;;;;;14.10;97.70;;;;;;5061052;28;19923;-73
2022/10/21 09:44:33;;;;;;;;;;;14.10;97.40;;;;;;5057074;28;20352;-73
2022/10/21 09:46:59;;;;;;;;;;;14.20;97.30;;;;;;5056578;28;20511;-73
2022/10/21 09:49:28;;;;;;;;;;;14.30;97.60;;;;;;5061305;28;19916;-73
2022/10/21 09:51:54;;;;;;;;;;;14.40;97.60;;;;;;5057926;28;20481;-74
2022/10/21 09:54:21;;;;;;;;;;;14.50;97.00;;;;;;5060912;28;19916;-73
2022/10/21 09:57:05;;;;;;;;;;;14.70;97.40;;;;;;5057914;28;20428;-73
2022/10/21 09:59:31;;;;;;;;;;;15.00;96.80;;;;;;5069978;28;19908;-73
2022/10/21 10:02:04;;;;;;;;;;;15.20;97.20;;;;;;5064791;28;19956;-74
2022/10/21 10:04:33;;;;;;;;;;;15.20;96.40;;;;;;5056172;28;19905;-73
2022/10/21 10:07:18;;;;;;;;;;;15.50;96.40;;;;;;5072790;28;19912;-72
2022/10/21 10:09:46;;;;;;;;;;;15.70;96.10;;;;;;5059834;28;19913;-73
2022/10/21 10:12:13;;;;;;;;;;;15.70;94.50;;;;;;5057719;28;20307;-73
2022/10/21 10:14:39;;;;;;;;;;;16.00;95.10;;;;;;5057098;28;19909;-73
2022/10/21 10:17:18;;;;;;;;;;;16.10;94.10;;;;;;5065778;28;19905;-73
2022/10/21 10:20:02;;;;;;;;;;;16.10;92.90;;;;;;5063849;28;19909;-73
2022/10/21 10:22:28;;;;;;;;;;;16.30;93.40;;;;;;5061243;28;19952;-76
2022/10/21 10:25:05;;;;;;;;;;;16.50;93.10;;;;;;5062502;28;20008;-71
2022/10/21 10:27:31;;;;;;;;;;;16.50;92.00;;;;;;5056914;28;19920;-73
2022/10/21 10:29:57;;;;;;;;;;;16.50;91.40;;;;;;5065450;28;20385;-72
2022/10/21 10:32:25;;;;;;;;;;;16.50;91.20;;;;;;5062294;28;19948;-72
2022/10/21 10:34:52;;;;;;;;;;;16.90;92.10;;;;;;5047422;28;19909;-73
2022/10/21 10:37:21;;;;;;;;;;;16.90;90.90;;;;;;5061927;28;19951;-72
2022/10/21 10:39:48;;;;;;;;;;;16.80;89.50;;;;;;5068866;28;20245;-71
2022/10/21 10:42:29;;;;;;;;;;;16.90;90.90;;;;;;5042269;28;20368;-72
2022/10/21 10:44:56;;;;;;;;;;;16.80;90.50;;;;;;5059772;28;20356;-72
2022/10/21 10:47:27;;;;;;;;;;;16.60;90.50;;;;;;5070036;28;19974;-72
2022/10/21 10:49:52;;;;;;;;;;;16.70;90.90;;;;;;5073255;28;19908;-73
2022/10/21 10:52:23;;;;;;;;;;;16.50;90.70;;;;;;5068640;28;20379;-72
2022/10/21 10:55:08;;;;;;;;;;;16.40;90.40;;;;;;5059860;28;20259;-74
2022/10/21 10:57:34;;;;;;;;;;;16.30;91.30;;;;;;5054402;28;20501;-71
2022/10/21 11:00:00;;;;;;;;;;;16.20;91.70;;;;;;5055191;28;19916;-71
2022/10/21 11:02:44;;;;;;;;;;;16.10;91.90;;;;;;5039884;28;20361;-73
2022/10/21 11:05:16;;;;;;;;;;;16.20;91.90;;;;;;5049330;28;19958;-73
2022/10/21 11:07:44;;;;;;;;;;;16.10;91.80;;;;;;5041134;28;20023;-72
2022/10/21 11:10:28;;;;;;;;;;;16.10;92.30;;;;;;5044030;28;20443;-71
2022/10/21 11:12:54;;;;;;;;;;;16.00;91.90;;;;;;5062683;28;19908;-72
2022/10/21 11:15:24;;;;;;;;;;;16.00;92.30;;;;;;5041989;28;20352;-71
2022/10/21 11:17:56;;;;;;;;;;;16.00;92.60;;;;;;5059944;28;19987;-72
2022/10/21 11:20:27;;;;;;;;;;;15.90;92.30;;;;;;5046215;28;20403;-71
2022/10/21 11:23:08;;;;;;;;;;;16.00;92.10;;;;;;5041527;28;19920;-72
2022/10/21 11:25:38;;;;;;;;;;;15.90;91.90;;;;;;5049327;28;20368;-72
2022/10/21 11:28:19;;;;;;;;;;;16.00;92.20;;;;;;5044447;28;20049;-72
2022/10/21 11:30:57;;;;;;;;;;;16.20;92.10;;;;;;5041011;28;19917;-71
2022/10/21 11:33:32;;;;;;;;;;;16.20;91.90;;;;;;5062098;28;20009;-73
2022/10/21 11:36:16;;;;;;;;;;;16.10;91.50;;;;;;5066732;28;19908;-73
2022/10/21 11:38:52;;;;;;;;;;;16.10;91.60;;;;;;5063888;28;19917;-74
2022/10/21 11:41:29;;;;;;;;;;;16.10;92.00;;;;;;5062216;28;19909;-72
2022/10/21 11:43:55;;;;;;;;;;;16.00;91.40;;;;;;5055002;28;19934;-72
2022/10/21 11:46:39;;;;;;;;;;;16.10;91.90;;;;;;5055799;28;19923;-72
2022/10/21 11:49:23;;;;;;;;;;;16.20;91.30;;;;;;5066368;28;19954;-72
2022/10/21 11:51:58;;;;;;;;;;;16.30;91.90;;;;;;5068350;28;19917;-72
2022/10/21 11:54:47;;;;;;;;;;;16.30;91.30;;;;;;5067194;28;19912;-72
2022/10/21 11:57:24;;;;;;;;;;;16.30;91.20;;;;;;5049633;28;19963;-72
2022/10/21 12:00:08;;;;;;;;;;;16.40;91.40;;;;;;5069124;28;19978;-72
2022/10/21 12:02:34;;;;;;;;;;;16.30;91.10;;;;;;5054021;28;20011;-72
2022/10/21 12:05:18;;;;;;;;;;;16.30;91.40;;;;;;5060271;28;20008;-74
2022/10/21 12:07:56;;;;;;;;;;;16.40;91.90;;;;;;5070056;28;19962;-73
2022/10/21 12:10:31;;;;;;;;;;;16.30;91.30;;;;;;5067917;28;19966;-72
2022/10/21 12:12:59;;;;;;;;;;;16.30;91.70;;;;;;5053492;28;19909;-72
2022/10/21 12:15:29;;;;;;;;;;;16.30;91.40;;;;;;5056195;28;19951;-72
2022/10/21 12:17:56;;;;;;;;;;;16.30;91.90;;;;;;5060868;28;19909;-72
2022/10/21 12:20:23;;;;;;;;;;;16.30;91.90;;;;;;5065215;28;20373;-72
2022/10/21 12:22:48;;;;;;;;;;;16.30;91.90;;;;;;5063325;28;20459;-72
2022/10/21 12:25:14;;;;;;;;;;;16.30;92.00;;;;;;5062829;28;20002;-72
2022/10/21 12:28:09;;;;;;;;;;;16.30;92.00;;;;;;5051857;28;20008;-71
2022/10/21 12:30:43;;;;;;;;;;;16.50;92.00;;;;;;5042135;28;19908;-73
2022/10/21 12:33:16;;;;;;;;;;;16.40;92.00;;;;;;5049437;28;19913;-71
2022/10/21 12:35:49;;;;;;;;;;;16.40;91.50;;;;;;5056552;28;19916;-72
2022/10/21 12:38:26;;;;;;;;;;;16.50;91.60;;;;;;5074795;28;19999;-74
2022/10/21 12:41:11;;;;;;;;;;;16.50;91.60;;;;;;5064639;28;19923;-73
2022/10/21 12:43:37;;;;;;;;;;;16.50;91.60;;;;;;5044291;28;19909;-72
2022/10/21 12:46:07;;;;;;;;;;;16.50;91.50;;;;;;5066277;28;19916;-73
2022/10/21 12:48:38;;;;;;;;;;;16.50;91.50;;;;;;5049565;28;19935;-72
2022/10/21 12:51:05;;;;;;;;;;;16.50;91.50;;;;;;5046744;28;19908;-72
2022/10/21 12:53:39;;;;;;;;;;;16.70;91.60;;;;;;5071324;28;20366;-73
2022/10/21 12:56:06;;;;;;;;;;;16.70;91.10;;;;;;5047863;28;20424;-74
2022/10/21 12:58:40;;;;;;;;;;;16.70;91.20;;;;;;5046183;28;19940;-73
2022/10/21 13:01:06;;;;;;;;;;;16.70;91.00;;;;;;5070845;28;20315;-72
2022/10/21 13:03:44;;;;;;;;;;;16.80;90.80;;;;;;5048559;28;19935;-72
2022/10/21 13:06:10;;;;;;;;;;;16.90;91.00;;;;;;5066552;28;19916;-72
2022/10/21 13:08:50;;;;;;;;;;;16.90;90.60;;;;;;5043630;28;19905;-71
2022/10/21 13:11:21;;;;;;;;;;;16.90;90.10;;;;;;5042472;28;20263;-73
2022/10/21 13:14:07;;;;;;;;;;;17.00;90.00;;;;;;5051227;28;19955;-72
2022/10/21 13:16:39;;;;;;;;;;;17.00;90.30;;;;;;5059080;28;19920;-72
2022/10/21 13:19:25;;;;;;;;;;;17.10;90.20;;;;;;5046676;28;19912;-72
2022/10/21 13:21:59;;;;;;;;;;;17.10;89.70;;;;;;5045767;28;19908;-72
2022/10/21 13:24:29;;;;;;;;;;;17.30;90.00;;;;;;5046153;28;19950;-71
2022/10/21 13:26:56;;;;;;;;;;;17.50;88.90;;;;;;5030832;28;19917;-75
2022/10/21 13:29:37;;;;;;;;;;;17.50;89.00;;;;;;5045109;28;19916;-72
2022/10/21 13:32:18;;;;;;;;;;;17.70;88.20;;;;;;5061058;28;20439;-72
2022/10/21 13:34:52;;;;;;;;;;;18.00;88.40;;;;;;5058325;28;19948;-72
2022/10/21 13:37:30;;;;;;;;;;;18.00;87.40;;;;;;5061466;28;19909;-72
2022/10/21 13:39:57;;;;;;;;;;;18.10;87.90;;;;;;5071762;28;19909;-72
2022/10/21 13:42:24;;;;;;;;;;;18.20;87.50;;;;;;5068890;28;20005;-72
2022/10/21 13:44:51;;;;;;;;;;;18.30;87.60;;;;;;5056269;28;20371;-71
2022/10/21 13:47:17;;;;;;;;;;;18.20;87.20;;;;;;5069447;28;19937;-76
2022/10/21 13:49:48;;;;;;;;;;;18.10;87.50;;;;;;5062296;28;20699;-71
2022/10/21 13:52:14;;;;;;;;;;;18.00;87.10;;;;;;5047534;28;19928;-72
2022/10/21 13:54:39;;;;;;;;;;;17.80;87.60;;;;;;5059422;28;19930;-72
2022/10/21 13:57:05;;;;;;;;;;;17.70;88.00;;;;;;5071039;28;19908;-71
2022/10/21 13:59:33;;;;;;;;;;;17.60;88.60;;;;;;5061688;28;19955;-72
2022/10/21 14:01:58;;;;;;;;;;;17.40;89.20;;;;;;5054785;28;19966;-72
2022/10/21 14:04:25;;;;;;;;;;;17.30;89.30;;;;;;5062135;28;20343;-72
2022/10/21 14:06:59;;;;;;;;;;;17.20;90.00;;;;;;5059611;28;19923;-71
2022/10/21 14:09:33;;;;;;;;;;;17.20;90.20;;;;;;5060275;28;19920;-71
2022/10/21 14:12:03;;;;;;;;;;;17.00;90.30;;;;;;5055381;28;20367;-72
2022/10/21 14:14:30;;;;;;;;;;;17.00;90.60;;;;;;5053140;28;19939;-71
2022/10/21 14:16:58;;;;;;;;;;;17.00;90.90;;;;;;5064905;28;20449;-72
2022/10/21 14:19:25;;;;;;;;;;;16.90;91.00;;;;;;5063756;28;19912;-71
2022/10/21 14:21:52;;;;;;;;;;;16.80;91.40;;;;;;5062605;28;20018;-73
2022/10/21 14:24:24;;;;;;;;;;;16.70;91.80;;;;;;5064796;28;19913;-74
2022/10/21 14:26:49;;;;;;;;;;;16.60;92.20;;;;;;5063939;28;19916;-72
2022/10/21 14:29:15;;;;;;;;;;;16.60;92.30;;;;;;5064745;28;19966;-71